createdAt,value
2022-08-05T00:01:35.490Z,26.50
2022-08-05T00:04:03.866Z,26.50
2022-08-05T00:06:36.338Z,26.50
2022-08-05T00:09:04.853Z,26.40
2022-08-05T00:11:49.010Z,26.30
2022-08-05T00:14:29.136Z,26.30
2022-08-05T00:16:57.746Z,26.20
2022-08-05T00:19:32.854Z,26.10
2022-08-05T00:22:12.299Z,26.10
2022-08-05T00:24:42.273Z,26.00
2022-08-05T00:27:14.090Z,25.90
2022-08-05T00:29:44.895Z,25.80
2022-08-05T00:32:15.499Z,25.80
2022-08-05T00:35:05.571Z,25.70
2022-08-05T00:37:51.176Z,25.70
2022-08-05T00:40:28.264Z,25.70
2022-08-05T00:43:00.284Z,25.70
2022-08-05T00:45:38.380Z,25.60
2022-08-05T00:48:08.272Z,25.60
2022-08-05T00:50:38.197Z,25.50
2022-08-05T00:53:09.794Z,25.50
2022-08-05T00:55:57.482Z,25.50
2022-08-05T00:58:27.495Z,25.50
2022-08-05T01:00:56.031Z,25.40
2022-08-05T01:03:24.449Z,25.50
2022-08-05T01:05:59.601Z,25.40
2022-08-05T01:08:40.929Z,25.30
2022-08-05T01:11:22.360Z,25.40
2022-08-05T01:14:08.456Z,25.30
2022-08-05T01:16:44.520Z,25.30
2022-08-05T01:19:46.264Z,25.20
2022-08-05T01:22:28.172Z,25.20
2022-08-05T01:25:20.068Z,25.20
2022-08-05T01:28:10.360Z,25.20
2022-08-05T01:30:50.662Z,25.10
2022-08-05T01:33:29.446Z,25.10
2022-08-05T01:36:13.206Z,25.10
2022-08-05T01:38:48.452Z,25.10
2022-08-05T01:41:21.897Z,25.00
2022-08-05T01:43:53.015Z,25.10
2022-08-05T01:46:42.044Z,25.00
2022-08-05T01:49:23.157Z,25.00
2022-08-05T01:51:58.448Z,25.10
2022-08-05T01:54:33.015Z,25.00
2022-08-05T01:58:12.868Z,25.00
2022-08-05T01:59:54.048Z,25.00
2022-08-05T02:02:28.436Z,25.00
2022-08-05T02:05:01.544Z,25.00
2022-08-05T02:07:31.762Z,25.00
2022-08-05T02:10:02.184Z,24.90
2022-08-05T02:12:38.331Z,24.80
2022-08-05T02:15:13.691Z,24.60
2022-08-05T02:18:31.727Z,24.70
2022-08-05T02:20:48.605Z,24.80
2022-08-05T02:23:19.512Z,24.80
2022-08-05T02:25:50.656Z,24.80
2022-08-05T02:28:28.633Z,24.80
2022-08-05T02:31:03.998Z,24.80
2022-08-05T02:33:38.885Z,24.80
2022-08-05T02:36:13.696Z,24.80
2022-08-05T02:38:53.564Z,24.70
2022-08-05T02:41:28.986Z,24.70
2022-08-05T02:44:13.352Z,24.70
2022-08-05T02:46:59.903Z,24.80
2022-08-05T02:49:36.559Z,24.80
2022-08-05T02:52:11.571Z,24.60
2022-08-05T02:54:52.056Z,24.60
2022-08-05T02:58:19.949Z,24.60
2022-08-05T03:00:12.899Z,24.60
2022-08-05T03:02:45.018Z,24.70
2022-08-05T03:05:14.763Z,24.80
2022-08-05T03:08:06.857Z,24.90
2022-08-05T03:10:31.619Z,24.90
2022-08-05T03:15:26.640Z,25.00
2022-08-05T03:17:58.055Z,25.00
2022-08-05T03:20:27.802Z,25.00
2022-08-05T03:22:57.697Z,24.90
2022-08-05T03:25:32.861Z,24.90
2022-08-05T03:28:18.708Z,24.90
2022-08-05T03:30:49.294Z,24.80
2022-08-05T03:33:18.764Z,24.20
2022-08-05T03:35:48.473Z,23.90
2022-08-05T03:38:32.803Z,23.70
2022-08-05T03:41:08.147Z,23.50
2022-08-05T03:44:09.871Z,23.50
2022-08-05T03:46:29.734Z,23.50
2022-08-05T03:48:59.911Z,23.30
2022-08-05T03:52:38.329Z,23.20
2022-08-05T03:55:52.749Z,22.80
2022-08-05T03:57:17.878Z,22.70
2022-08-05T03:59:54.950Z,22.70
2022-08-05T04:02:38.426Z,22.20
2022-08-05T04:05:15.711Z,21.90
2022-08-05T04:07:58.277Z,21.60
2022-08-05T04:10:32.106Z,21.40
2022-08-05T04:13:03.431Z,21.60
2022-08-05T04:15:33.232Z,21.90
2022-08-05T04:18:06.741Z,22.10
2022-08-05T04:20:36.929Z,22.10
2022-08-05T04:23:05.177Z,22.20
2022-08-05T04:25:57.956Z,22.30
2022-08-05T04:28:30.959Z,22.10
2022-08-05T04:31:00.850Z,21.80
2022-08-05T04:33:54.774Z,21.70
2022-08-05T04:36:46.191Z,21.70
2022-08-05T04:39:07.950Z,21.60
2022-08-05T04:41:37.278Z,21.40
2022-08-05T04:44:09.593Z,21.40
2022-08-05T04:46:38.907Z,21.20
2022-08-05T04:49:12.201Z,20.90
2022-08-05T04:51:44.324Z,20.80
2022-08-05T04:54:12.477Z,21.00
2022-08-05T04:56:40.866Z,21.20
2022-08-05T04:59:22.255Z,21.20
2022-08-05T05:02:08.159Z,21.20
2022-08-05T05:04:51.368Z,21.20
2022-08-05T05:07:23.864Z,21.30
2022-08-05T05:09:57.657Z,21.30
2022-08-05T05:12:27.219Z,21.30
2022-08-05T05:14:55.718Z,20.90
2022-08-05T05:17:24.921Z,20.90
2022-08-05T05:20:12.885Z,20.90
2022-08-05T05:22:44.057Z,20.90
2022-08-05T05:25:16.363Z,20.80
2022-08-05T05:27:53.640Z,20.80
2022-08-05T05:30:31.341Z,21.00
2022-08-05T05:33:09.162Z,21.10
2022-08-05T05:35:45.413Z,21.00
2022-08-05T05:38:22.758Z,21.10
2022-08-05T05:40:56.313Z,21.30
2022-08-05T05:43:54.097Z,21.40
2022-08-05T05:46:17.855Z,21.50
2022-08-05T05:48:48.699Z,21.50
2022-08-05T05:51:21.596Z,21.60
2022-08-05T05:53:58.287Z,21.70
2022-08-05T05:56:31.561Z,21.60
2022-08-05T05:59:03.284Z,21.60
2022-08-05T06:01:37.349Z,22.00
2022-08-05T06:04:11.316Z,21.90
2022-08-05T06:06:41.710Z,22.10
2022-08-05T06:09:16.743Z,22.30
2022-08-05T06:11:58.993Z,22.40
2022-08-05T06:14:28.852Z,22.60
2022-08-05T06:16:57.936Z,22.90
2022-08-05T06:19:35.437Z,22.50
2022-08-05T06:22:04.510Z,22.70
2022-08-05T06:24:36.930Z,23.10
2022-08-05T06:27:05.849Z,23.20
2022-08-05T06:30:05.889Z,23.20
2022-08-05T06:32:41.640Z,23.50
2022-08-05T06:35:15.592Z,23.70
2022-08-05T06:38:08.251Z,23.80
2022-08-05T06:40:42.019Z,23.80
2022-08-05T06:43:51.473Z,23.80
2022-08-05T06:46:03.577Z,23.70
2022-08-05T06:48:52.683Z,23.50
2022-08-05T06:51:29.375Z,23.80
2022-08-05T06:53:59.008Z,23.70
2022-08-05T06:56:28.586Z,24.20
2022-08-05T06:58:57.237Z,24.70
2022-08-05T07:01:32.412Z,24.50
2022-08-05T07:04:01.539Z,24.90
2022-08-05T07:06:32.036Z,24.80
2022-08-05T07:09:04.387Z,25.00
2022-08-05T07:11:37.239Z,24.80
2022-08-05T07:14:29.327Z,25.10
2022-08-05T07:18:00.088Z,25.30
2022-08-05T07:20:34.128Z,25.40
2022-08-05T07:22:38.837Z,25.40
2022-08-05T07:25:21.850Z,25.40
2022-08-05T07:28:02.268Z,25.20
2022-08-05T07:30:34.698Z,25.10
2022-08-05T07:33:09.999Z,24.60
2022-08-05T07:36:04.593Z,24.30
2022-08-05T07:38:34.099Z,24.30
2022-08-05T07:42:06.738Z,24.20
2022-08-05T07:43:56.682Z,23.90
2022-08-05T07:46:26.614Z,23.70
2022-08-05T07:49:02.327Z,23.30
2022-08-05T07:51:37.099Z,22.90
2022-08-05T07:54:11.425Z,22.70
2022-08-05T07:57:01.718Z,22.60
2022-08-05T07:59:38.871Z,22.40
2022-08-05T08:02:15.885Z,22.30
2022-08-05T08:04:49.370Z,22.40
2022-08-05T08:07:22.253Z,22.30
2022-08-05T08:09:55.005Z,22.40
2022-08-05T08:12:35.209Z,22.40
2022-08-05T08:15:15.594Z,22.50
2022-08-05T08:17:49.734Z,22.40
2022-08-05T08:20:59.805Z,22.50
2022-08-05T08:24:00.236Z,22.30
2022-08-05T08:26:00.086Z,22.20
2022-08-05T08:28:36.410Z,22.30
2022-08-05T08:31:07.673Z,22.00
2022-08-05T08:33:37.932Z,22.10
2022-08-05T08:38:56.924Z,21.90
2022-08-05T08:41:50.873Z,22.00
2022-08-05T08:45:23.785Z,21.90
2022-08-05T08:47:47.333Z,21.80
2022-08-05T08:50:23.287Z,21.60
2022-08-05T08:52:51.692Z,21.60
2022-08-05T08:56:01.877Z,21.60
2022-08-05T08:58:12.848Z,21.50
2022-08-05T09:00:42.138Z,21.60
2022-08-05T09:03:12.360Z,21.50
2022-08-05T09:06:09.132Z,21.60
2022-08-05T09:08:32.322Z,21.80
2022-08-05T09:11:00.575Z,21.80
2022-08-05T09:13:31.959Z,21.80
2022-08-05T09:16:17.303Z,21.80
2022-08-05T09:18:46.800Z,21.90
2022-08-05T09:21:21.159Z,22.00
2022-08-05T09:24:08.715Z,22.20
2022-08-05T09:26:38.279Z,22.50
2022-08-05T09:29:11.597Z,22.60
2022-08-05T09:32:41.416Z,22.80
2022-08-05T09:34:55.035Z,22.90
2022-08-05T09:38:17.021Z,23.10
2022-08-05T09:40:30.800Z,23.30
2022-08-05T09:43:01.106Z,23.30
2022-08-05T09:46:07.915Z,23.30
2022-08-05T09:48:29.461Z,23.40
2022-08-05T09:51:01.885Z,23.50
2022-08-05T09:53:54.356Z,23.50
2022-08-05T09:56:26.219Z,23.40
2022-08-05T09:58:58.368Z,23.10
2022-08-05T10:01:32.407Z,23.20
2022-08-05T10:04:10.629Z,23.40
2022-08-05T10:06:54.964Z,23.50
2022-08-05T10:09:29.771Z,23.70
2022-08-05T10:12:30.819Z,24.00
2022-08-05T10:15:17.015Z,24.10
2022-08-05T10:17:54.635Z,24.30
2022-08-05T10:20:26.489Z,24.50
2022-08-05T10:22:58.461Z,24.40
2022-08-05T10:25:26.617Z,24.60
2022-08-05T10:28:13.936Z,24.80
2022-08-05T10:32:55.162Z,24.60
2022-08-05T10:33:35.111Z,24.70
2022-08-05T10:36:04.987Z,24.60
2022-08-05T10:38:36.343Z,24.50
2022-08-05T10:41:12.414Z,24.60
2022-08-05T10:43:50.196Z,24.70
2022-08-05T10:46:23.754Z,24.60
2022-08-05T10:49:00.625Z,25.00
2022-08-05T10:51:58.282Z,25.10
2022-08-05T10:54:56.197Z,24.70
2022-08-05T10:57:29.393Z,24.50
2022-08-05T11:00:13.371Z,24.80
2022-08-05T11:03:25.915Z,25.30
2022-08-05T11:06:16.032Z,25.60
2022-08-05T11:09:39.246Z,25.70
2022-08-05T11:12:50.874Z,25.50
2022-08-05T11:15:59.220Z,25.60
2022-08-05T11:18:27.093Z,25.60
2022-08-05T11:20:57.917Z,25.60
2022-08-05T11:23:33.280Z,25.70
2022-08-05T11:26:09.342Z,26.00
2022-08-05T11:28:47.751Z,26.10
2022-08-05T11:31:57.908Z,26.40
2022-08-05T11:34:37.437Z,26.00
2022-08-05T11:37:06.278Z,26.70
2022-08-05T11:40:00.700Z,26.30
2022-08-05T11:42:40.277Z,26.70
2022-08-05T11:45:26.817Z,26.90
2022-08-05T11:48:01.686Z,27.30
2022-08-05T11:50:39.389Z,27.60
2022-08-05T11:53:10.055Z,27.20
2022-08-05T11:55:38.174Z,27.70
2022-08-05T11:58:10.320Z,27.90
2022-08-05T12:00:44.229Z,28.00
2022-08-05T12:03:24.097Z,27.80
2022-08-05T12:06:02.040Z,28.10
2022-08-05T12:08:31.422Z,28.20
2022-08-05T12:11:04.075Z,27.90
2022-08-05T12:13:48.851Z,27.80
2022-08-05T12:16:25.705Z,27.80
2022-08-05T12:18:55.791Z,27.60
2022-08-05T12:21:26.865Z,27.90
2022-08-05T12:24:05.048Z,28.30
2022-08-05T12:26:34.617Z,28.40
2022-08-05T12:29:03.527Z,28.10
2022-08-05T12:31:45.929Z,28.20
2022-08-05T12:34:20.565Z,28.00
2022-08-05T12:36:50.972Z,27.50
2022-08-05T12:39:23.727Z,27.40
2022-08-05T12:41:59.926Z,27.80
2022-08-05T12:44:33.929Z,28.20
2022-08-05T12:47:04.383Z,28.50
2022-08-05T12:50:03.697Z,28.70
2022-08-05T12:52:38.878Z,28.80
2022-08-05T12:55:22.352Z,28.90
2022-08-05T12:58:49.789Z,29.10
2022-08-05T13:02:03.768Z,28.90
2022-08-05T13:03:41.525Z,28.90
2022-08-05T13:06:16.721Z,28.90
2022-08-05T13:08:50.608Z,28.70
2022-08-05T13:12:01.952Z,28.50
2022-08-05T13:14:19.493Z,28.30
2022-08-05T13:16:56.522Z,28.10
2022-08-05T13:19:52.511Z,28.00
2022-08-05T13:22:28.437Z,28.10
2022-08-05T13:25:00.637Z,28.10
2022-08-05T13:27:37.321Z,28.00
2022-08-05T13:30:33.726Z,27.90
2022-08-05T13:32:56.628Z,27.80
2022-08-05T13:35:42.549Z,27.80
2022-08-05T13:38:28.260Z,27.70
2022-08-05T13:40:59.902Z,27.30
2022-08-05T13:43:44.886Z,27.40
2022-08-05T13:46:30.847Z,27.50
2022-08-05T13:49:09.836Z,27.50
2022-08-05T13:51:41.532Z,27.30
2022-08-05T13:54:15.118Z,27.20
2022-08-05T13:56:45.467Z,27.10
2022-08-05T13:59:24.115Z,27.20
2022-08-05T14:01:56.375Z,27.50
2022-08-05T14:04:43.821Z,27.70
2022-08-05T14:07:25.689Z,27.80
2022-08-05T14:10:10.894Z,27.70
2022-08-05T14:12:38.879Z,27.50
2022-08-05T14:16:03.911Z,27.30
2022-08-05T14:17:59.388Z,27.10
2022-08-05T14:20:28.373Z,27.00
2022-08-05T14:22:58.019Z,27.10
2022-08-05T14:25:28.360Z,27.20
2022-08-05T14:27:58.288Z,27.30
2022-08-05T14:30:28.084Z,27.20
2022-08-05T14:32:57.207Z,27.00
2022-08-05T14:35:36.888Z,26.90
2022-08-05T14:38:31.935Z,26.90
2022-08-05T14:41:01.579Z,27.10
2022-08-05T14:44:01.811Z,27.20
2022-08-05T14:46:21.896Z,27.10
2022-08-05T14:48:50.553Z,27.10
2022-08-05T14:51:20.961Z,27.00
2022-08-05T14:54:26.564Z,27.00
2022-08-05T14:56:44.363Z,27.00
2022-08-05T14:59:15.355Z,26.80
2022-08-05T15:01:48.463Z,26.70
2022-08-05T15:04:17.622Z,26.70
2022-08-05T15:06:49.877Z,26.60
2022-08-05T15:09:52.368Z,26.60
2022-08-05T15:12:08.940Z,26.50
2022-08-05T15:14:48.305Z,26.20
2022-08-05T15:17:45.080Z,26.20
2022-08-05T15:20:17.011Z,26.30
2022-08-05T15:22:54.230Z,26.30
2022-08-05T15:25:51.102Z,26.10
2022-08-05T15:28:15.721Z,26.00
2022-08-05T15:30:45.518Z,25.80
2022-08-05T15:33:56.402Z,25.70
2022-08-05T15:36:03.917Z,25.70
2022-08-05T15:38:36.618Z,25.40
2022-08-05T15:41:21.463Z,25.40
2022-08-05T15:43:54.968Z,25.30
2022-08-05T15:46:24.018Z,25.10
2022-08-05T15:49:01.237Z,25.00
2022-08-05T15:52:10.165Z,24.90
2022-08-05T15:54:34.871Z,24.90
2022-08-05T15:57:07.384Z,24.70
2022-08-05T15:59:36.235Z,24.40
2022-08-05T16:02:09.567Z,24.40
2022-08-05T16:04:54.602Z,24.20
2022-08-05T16:07:23.042Z,24.00
2022-08-05T16:09:51.157Z,23.80
2022-08-05T16:12:23.828Z,23.70
2022-08-05T16:14:52.020Z,23.60
2022-08-05T16:17:20.012Z,23.50
2022-08-05T16:20:04.987Z,23.40
2022-08-05T16:22:36.606Z,23.40
2022-08-05T16:25:09.462Z,23.40
2022-08-05T16:28:00.220Z,23.30
2022-08-05T16:30:29.029Z,23.20
2022-08-05T16:32:58.095Z,23.20
2022-08-05T16:35:28.260Z,23.10
2022-08-05T16:38:02.516Z,23.00
2022-08-05T16:40:52.088Z,23.00
2022-08-05T16:43:26.084Z,22.90
2022-08-05T16:46:07.011Z,22.90
2022-08-05T16:48:40.699Z,22.80
2022-08-05T16:51:10.821Z,22.90
2022-08-05T16:54:04.249Z,22.90
2022-08-05T16:56:33.830Z,22.90
2022-08-05T16:59:08.465Z,22.90
2022-08-05T17:01:54.783Z,22.80
2022-08-05T17:04:26.390Z,22.70
2022-08-05T17:06:55.582Z,22.70
2022-08-05T17:09:25.219Z,22.60
2022-08-05T17:11:59.875Z,22.60
2022-08-05T17:14:37.102Z,22.50
2022-08-05T17:17:14.996Z,22.30
2022-08-05T17:19:46.076Z,22.20
2022-08-05T17:22:24.878Z,22.20
2022-08-05T17:24:58.136Z,22.20
2022-08-05T17:27:33.816Z,22.20
2022-08-05T17:30:07.127Z,22.20
2022-08-05T17:32:40.013Z,22.20
2022-08-05T17:35:10.883Z,22.10
2022-08-05T17:37:45.463Z,22.10
2022-08-05T17:40:18.505Z,22.10
2022-08-05T17:42:52.919Z,22.00
2022-08-05T17:45:29.726Z,22.00
2022-08-05T17:48:08.105Z,22.00
2022-08-05T17:50:36.911Z,22.00
2022-08-05T17:53:08.383Z,22.00
2022-08-05T17:55:39.495Z,22.00
2022-08-05T17:58:12.307Z,22.00
2022-08-05T18:00:47.600Z,22.00
2022-08-05T18:03:58.626Z,22.00
2022-08-05T18:06:11.040Z,21.90
2022-08-05T18:08:40.550Z,21.90
2022-08-05T18:11:23.854Z,21.90
2022-08-05T18:13:59.689Z,22.00
2022-08-05T18:16:29.677Z,22.00
2022-08-05T18:19:02.860Z,21.90
2022-08-05T18:22:09.245Z,21.80
2022-08-05T18:24:20.920Z,21.70
2022-08-05T18:26:49.305Z,21.70
2022-08-05T18:29:17.554Z,21.70
2022-08-05T18:32:12.922Z,21.70
2022-08-05T18:34:42.833Z,21.70
2022-08-05T18:37:33.318Z,21.70
2022-08-05T18:40:34.451Z,21.70
2022-08-05T18:42:50.136Z,21.70
2022-08-05T18:45:20.228Z,21.70
2022-08-05T18:47:56.719Z,21.60
2022-08-05T18:50:46.322Z,21.50
2022-08-05T18:53:19.177Z,21.50
2022-08-05T18:55:48.851Z,21.50
2022-08-05T18:58:18.458Z,21.50
2022-08-05T19:00:55.412Z,21.40
2022-08-05T19:03:55.661Z,21.30
2022-08-05T19:06:21.630Z,21.20
2022-08-05T19:08:50.580Z,21.20
2022-08-05T19:11:20.421Z,21.10
2022-08-05T19:14:01.016Z,21.00
2022-08-05T19:16:36.968Z,20.90
2022-08-05T19:19:20.988Z,20.80
2022-08-05T19:21:51.553Z,20.90
2022-08-05T19:24:34.659Z,20.80
2022-08-05T19:27:04.026Z,20.70
2022-08-05T19:29:36.455Z,20.70
2022-08-05T19:32:08.673Z,20.60
2022-08-05T19:34:41.942Z,20.60
2022-08-05T19:37:22.375Z,20.60
2022-08-05T19:40:03.103Z,20.60
2022-08-05T19:42:38.932Z,20.50
2022-08-05T19:45:08.362Z,20.50
2022-08-05T19:47:42.585Z,20.40
2022-08-05T19:50:12.754Z,20.40
2022-08-05T19:52:41.381Z,20.30
2022-08-05T19:56:11.800Z,20.30
2022-08-05T19:58:04.120Z,20.30
2022-08-05T20:00:46.925Z,20.30
2022-08-05T20:03:15.832Z,20.30
2022-08-05T20:05:50.222Z,20.20
2022-08-05T20:08:19.725Z,20.10
2022-08-05T20:10:49.799Z,20.10
2022-08-05T20:13:30.308Z,20.10
2022-08-05T20:16:07.246Z,20.10
2022-08-05T20:18:36.453Z,20.00
2022-08-05T20:21:07.414Z,19.90
2022-08-05T20:23:39.358Z,19.90
2022-08-05T20:26:20.002Z,19.90
2022-08-05T20:28:50.494Z,19.90
2022-08-05T20:31:21.764Z,19.80
2022-08-05T20:33:51.198Z,19.80
2022-08-05T20:36:21.977Z,19.80
2022-08-05T20:38:53.366Z,19.80
2022-08-05T20:41:26.992Z,19.80
2022-08-05T20:44:17.564Z,19.70
2022-08-05T20:46:57.231Z,19.70
2022-08-05T20:49:27.626Z,19.70
2022-08-05T20:51:58.160Z,19.50
2022-08-05T20:54:59.963Z,19.50
2022-08-05T20:57:21.431Z,19.50
2022-08-05T21:00:20.033Z,19.60
2022-08-05T21:02:56.112Z,19.50
2022-08-05T21:05:25.298Z,19.60
2022-08-05T21:08:07.910Z,19.60
2022-08-05T21:10:36.456Z,19.50
2022-08-05T21:13:14.640Z,19.50
2022-08-05T21:15:46.166Z,19.40
2022-08-05T21:18:19.274Z,19.40
2022-08-05T21:20:47.379Z,19.30
2022-08-05T21:23:17.113Z,19.30
2022-08-05T21:25:45.505Z,19.20
2022-08-05T21:28:13.716Z,19.10
2022-08-05T21:30:46.855Z,18.90
2022-08-05T21:33:22.234Z,18.90
2022-08-05T21:35:58.436Z,18.80
2022-08-05T21:38:29.038Z,18.80
2022-08-05T21:40:57.581Z,18.90
2022-08-05T21:43:26.094Z,18.70
2022-08-05T21:45:56.818Z,18.60
2022-08-05T21:48:28.520Z,18.50
2022-08-05T21:50:57.197Z,18.60
2022-08-05T21:53:27.183Z,18.60
2022-08-05T21:56:05.909Z,18.60
2022-08-05T21:58:54.827Z,18.70
2022-08-05T22:01:26.308Z,18.70
2022-08-05T22:03:54.521Z,18.70
2022-08-05T22:06:35.095Z,18.60
2022-08-05T22:09:14.605Z,18.50
2022-08-05T22:11:46.714Z,18.60
2022-08-05T22:14:33.428Z,18.50
2022-08-05T22:17:05.335Z,18.50
2022-08-05T22:20:02.226Z,18.60
2022-08-05T22:22:27.789Z,18.50
2022-08-05T22:25:20.986Z,18.50
2022-08-05T22:28:08.131Z,18.40
2022-08-05T22:30:55.770Z,18.30
2022-08-05T22:33:56.911Z,18.30
2022-08-05T22:36:15.169Z,18.30
2022-08-05T22:38:48.614Z,18.30
2022-08-05T22:41:26.229Z,18.30
2022-08-05T22:44:09.835Z,18.30
2022-08-05T22:46:40.827Z,18.00
2022-08-05T22:49:12.156Z,17.80
2022-08-05T22:52:04.498Z,17.50
2022-08-05T22:54:35.017Z,17.20
2022-08-05T22:57:03.551Z,17.20
2022-08-05T22:59:46.311Z,17.20
2022-08-05T23:02:18.611Z,17.20
2022-08-05T23:05:01.792Z,17.40
2022-08-05T23:07:32.923Z,17.50
2022-08-05T23:10:13.587Z,17.30
2022-08-05T23:12:43.179Z,17.10
2022-08-05T23:15:13.818Z,17.00
2022-08-05T23:18:01.262Z,16.90
2022-08-05T23:20:32.332Z,16.70
2022-08-05T23:23:00.788Z,16.60
2022-08-05T23:25:52.618Z,16.50
2022-08-05T23:28:22.070Z,16.50
2022-08-05T23:30:53.339Z,16.30
2022-08-05T23:33:26.550Z,16.20
2022-08-05T23:36:13.743Z,16.20
2022-08-05T23:38:43.421Z,16.20
2022-08-05T23:41:12.074Z,16.40
2022-08-05T23:44:04.483Z,16.30
2022-08-05T23:46:30.789Z,16.20
2022-08-05T23:49:00.817Z,16.10
2022-08-05T23:51:53.876Z,16.20
2022-08-05T23:54:25.685Z,16.10
2022-08-05T23:56:55.432Z,16.10
2022-08-05T23:59:37.740Z,16.10
